Time;durP1;ratioP1;P1;durP2;ratioP2;P2;SDS_P1;SDS_P2;PMS_P1;PMS_P2;Temp;Humidity;BMP_temperature;BMP_pressure;BME280_temperature;BME280_humidity;BME280_pressure;Samples;Min_cycle;Max_cycle;Signal;HPM_P1;HPM_P2
2023/03/21 00:02:43;;;;;;;38.22;22.20;;;;;;;;;;5078368;28;20062;-70
2023/03/21 00:05:28;;;;;;;32.67;21.75;;;;;;;;;;5077676;28;20039;-69
2023/03/21 00:08:14;;;;;;;31.80;20.08;;;;;;;;;;5078567;28;20051;-70
2023/03/21 00:11:01;;;;;;;31.05;18.65;;;;;;;;;;5078200;28;20024;-71
2023/03/21 00:13:47;;;;;;;28.65;17.23;;;;;;;;;;5078386;28;20020;-71
2023/03/21 00:16:33;;;;;;;28.15;16.88;;;;;;;;;;5078024;28;20024;-70
2023/03/21 00:19:23;;;;;;;29.08;16.80;;;;;;;;;;5064820;28;20029;-70
2023/03/21 00:22:09;;;;;;;27.35;16.42;;;;;;;;;;5064302;28;20365;-70
2023/03/21 00:24:55;;;;;;;29.15;16.95;;;;;;;;;;5078521;28;20115;-70
2023/03/21 00:27:40;;;;;;;26.30;15.52;;;;;;;;;;5078261;28;20020;-69
2023/03/21 00:30:26;;;;;;;24.13;15.32;;;;;;;;;;5078591;28;20445;-70
2023/03/21 00:33:12;;;;;;;29.88;16.77;;;;;;;;;;5077761;28;20020;-69
2023/03/21 00:35:58;;;;;;;29.48;16.38;;;;;;;;;;5077746;28;20052;-71
2023/03/21 00:38:44;;;;;;;28.60;17.40;;;;;;;;;;5078727;28;20441;-69
2023/03/21 00:41:29;;;;;;;30.83;17.88;;;;;;;;;;5077008;28;20043;-70
2023/03/21 00:44:15;;;;;;;28.63;17.08;;;;;;;;;;5077649;28;20055;-70
2023/03/21 00:47:02;;;;;;;34.63;18.20;;;;;;;;;;5077015;28;20017;-70
2023/03/21 00:49:47;;;;;;;29.73;18.10;;;;;;;;;;5077592;28;20032;-70
2023/03/21 00:52:33;;;;;;;27.67;17.13;;;;;;;;;;5076991;28;20063;-71
2023/03/21 00:55:18;;;;;;;27.70;16.70;;;;;;;;;;5063146;28;20036;-70
2023/03/21 00:58:05;;;;;;;26.75;16.15;;;;;;;;;;5062919;28;20118;-71
2023/03/21 01:00:51;;;;;;;27.73;17.10;;;;;;;;;;5076528;28;20021;-70
2023/03/21 01:03:41;;;;;;;28.20;15.95;;;;;;;;;;5076945;28;20021;-70
2023/03/21 01:06:27;;;;;;;29.48;17.20;;;;;;;;;;5077136;28;20431;-70
2023/03/21 01:09:14;;;;;;;28.42;17.00;;;;;;;;;;5076222;28;20360;-70
2023/03/21 01:12:00;;;;;;;31.80;18.17;;;;;;;;;;5075751;28;20408;-70
2023/03/21 01:14:47;;;;;;;31.50;18.27;;;;;;;;;;5076720;28;20059;-70
2023/03/21 01:17:32;;;;;;;29.67;18.45;;;;;;;;;;5076958;28;20555;-70
2023/03/21 01:20:18;;;;;;;25.95;17.10;;;;;;;;;;5077202;28;20025;-70
2023/03/21 01:23:03;;;;;;;28.48;16.90;;;;;;;;;;5076917;28;20089;-70
2023/03/21 01:25:50;;;;;;;37.60;18.83;;;;;;;;;;5077010;28;20009;-70
2023/03/21 01:28:36;;;;;;;30.15;18.40;;;;;;;;;;5076517;28;20013;-70
2023/03/21 01:31:22;;;;;;;31.38;18.55;;;;;;;;;;5076950;28;20028;-70
2023/03/21 01:34:08;;;;;;;29.25;18.45;;;;;;;;;;5076401;28;20028;-70
2023/03/21 01:36:53;;;;;;;31.27;18.40;;;;;;;;;;5076781;28;20030;-70
2023/03/21 01:39:39;;;;;;;32.08;18.77;;;;;;;;;;5076656;28;20108;-71
2023/03/21 01:42:24;;;;;;;29.08;18.13;;;;;;;;;;5077006;28;20056;-70
2023/03/21 01:45:29;;;;;;;35.42;19.50;;;;;;;;;;5076116;28;20016;-72
2023/03/21 01:48:14;;;;;;;29.60;17.95;;;;;;;;;;5075115;28;20035;-70
2023/03/21 01:51:00;;;;;;;40.35;21.05;;;;;;;;;;5076865;28;20398;-72
2023/03/21 01:53:46;;;;;;;30.98;18.50;;;;;;;;;;5076276;28;20103;-71
2023/03/21 01:56:33;;;;;;;30.65;19.20;;;;;;;;;;5076582;28;20104;-70
2023/03/21 01:59:21;;;;;;;38.10;19.83;;;;;;;;;;5076245;28;20056;-71
2023/03/21 02:02:10;;;;;;;37.30;19.88;;;;;;;;;;5076489;28;20021;-70
2023/03/21 02:04:56;;;;;;;35.42;19.58;;;;;;;;;;5075753;28;20021;-71
2023/03/21 02:07:42;;;;;;;34.90;20.98;;;;;;;;;;5075450;28;20122;-70
2023/03/21 02:10:29;;;;;;;38.65;22.95;;;;;;;;;;5075626;28;20032;-70
2023/03/21 02:13:15;;;;;;;35.58;21.65;;;;;;;;;;5076204;28;20035;-71
2023/03/21 02:16:04;;;;;;;35.75;21.23;;;;;;;;;;5075980;28;20039;-71
2023/03/21 02:18:53;;;;;;;34.72;21.38;;;;;;;;;;5075979;28;20040;-70
2023/03/21 02:21:54;;;;;;;36.92;21.10;;;;;;;;;;5075354;28;20052;-71
2023/03/21 02:24:58;;;;;;;37.30;21.15;;;;;;;;;;5076358;28;20103;-71
2023/03/21 02:27:49;;;;;;;36.30;21.58;;;;;;;;;;5073666;28;20050;-71
2023/03/21 02:30:47;;;;;;;36.42;20.30;;;;;;;;;;5075810;28;20092;-70
2023/03/21 02:33:45;;;;;;;37.38;22.10;;;;;;;;;;5060994;28;20012;-71
2023/03/21 02:37:03;;;;;;;36.30;21.55;;;;;;;;;;5076803;28;20016;-71
2023/03/21 02:40:12;;;;;;;34.80;21.15;;;;;;;;;;5034474;28;20029;-70
2023/03/21 02:43:16;;;;;;;33.35;20.48;;;;;;;;;;5076457;28;20020;-70
2023/03/21 02:46:25;;;;;;;34.65;20.45;;;;;;;;;;5074263;28;20027;-70
2023/03/21 02:49:14;;;;;;;32.75;19.30;;;;;;;;;;5060988;28;20025;-70
2023/03/21 02:52:01;;;;;;;33.80;20.17;;;;;;;;;;5089483;28;20024;-69
2023/03/21 02:54:47;;;;;;;32.08;18.73;;;;;;;;;;5077923;28;20115;-71
2023/03/21 02:57:33;;;;;;;31.05;19.00;;;;;;;;;;5075182;28;20038;-70
2023/03/21 03:00:20;;;;;;;34.33;19.60;;;;;;;;;;5078539;28;20074;-71
2023/03/21 03:03:06;;;;;;;33.88;19.70;;;;;;;;;;5082904;28;20005;-69
2023/03/21 03:05:56;;;;;;;32.53;19.50;;;;;;;;;;5081799;28;20040;-69
2023/03/21 03:08:45;;;;;;;32.63;19.30;;;;;;;;;;5082244;28;20161;-70
2023/03/21 03:11:35;;;;;;;33.90;19.42;;;;;;;;;;5075987;28;20025;-70
2023/03/21 03:14:29;;;;;;;34.38;20.98;;;;;;;;;;5075149;28;20507;-70
2023/03/21 03:17:41;;;;;;;35.22;19.58;;;;;;;;;;5074579;28;20039;-69
2023/03/21 03:20:31;;;;;;;33.25;19.88;;;;;;;;;;5061117;28;20024;-69
2023/03/21 03:23:22;;;;;;;32.25;19.65;;;;;;;;;;5060876;28;20013;-71
2023/03/21 03:26:14;;;;;;;32.92;19.10;;;;;;;;;;5078991;28;20017;-69
2023/03/21 03:29:03;;;;;;;36.45;20.42;;;;;;;;;;5080083;28;20027;-70
2023/03/21 03:31:58;;;;;;;35.53;19.92;;;;;;;;;;5075422;28;20042;-70
2023/03/21 03:34:48;;;;;;;28.73;17.50;;;;;;;;;;5075367;28;20047;-71
2023/03/21 03:37:36;;;;;;;28.23;16.77;;;;;;;;;;5073907;28;20024;-70
2023/03/21 03:40:25;;;;;;;39.05;17.17;;;;;;;;;;5059970;28;20500;-69
2023/03/21 03:43:14;;;;;;;27.83;16.45;;;;;;;;;;5073839;28;20056;-70
2023/03/21 03:46:04;;;;;;;29.50;17.05;;;;;;;;;;5073618;28;20078;-70
2023/03/21 03:48:55;;;;;;;30.70;16.45;;;;;;;;;;5074395;28;20021;-70
2023/03/21 03:51:47;;;;;;;30.52;17.25;;;;;;;;;;5074436;28;20457;-71
2023/03/21 03:54:36;;;;;;;34.15;18.40;;;;;;;;;;5060249;28;20024;-70
2023/03/21 03:57:24;;;;;;;29.10;18.25;;;;;;;;;;5075103;28;20048;-70
2023/03/21 04:00:11;;;;;;;27.17;17.17;;;;;;;;;;5072434;28;20035;-71
2023/03/21 04:02:57;;;;;;;33.45;17.88;;;;;;;;;;5074142;28;20071;-70
2023/03/21 04:05:45;;;;;;;30.27;17.48;;;;;;;;;;5073899;28;20041;-71
2023/03/21 04:08:31;;;;;;;33.20;16.75;;;;;;;;;;5074923;28;20029;-71
2023/03/21 04:11:16;;;;;;;30.15;16.88;;;;;;;;;;5059742;28;20039;-71
2023/03/21 04:14:02;;;;;;;29.55;17.63;;;;;;;;;;5074870;28;20039;-70
2023/03/21 04:16:48;;;;;;;31.38;18.85;;;;;;;;;;5074597;28;20465;-71
2023/03/21 04:19:33;;;;;;;35.80;19.05;;;;;;;;;;5074611;28;20040;-70
2023/03/21 04:22:19;;;;;;;34.50;20.33;;;;;;;;;;5074045;28;20059;-71
2023/03/21 04:25:06;;;;;;;53.42;21.10;;;;;;;;;;5060286;28;20032;-70
2023/03/21 04:27:51;;;;;;;39.92;20.88;;;;;;;;;;5059587;28;20017;-69
2023/03/21 04:30:37;;;;;;;39.20;19.55;;;;;;;;;;5073494;28;20020;-70
2023/03/21 04:33:26;;;;;;;38.70;20.55;;;;;;;;;;5073967;28;20491;-69
2023/03/21 04:36:26;;;;;;;38.60;20.27;;;;;;;;;;5074187;28;20095;-71
2023/03/21 04:39:12;;;;;;;38.63;21.80;;;;;;;;;;5062762;28;20118;-70
2023/03/21 04:41:57;;;;;;;37.70;20.73;;;;;;;;;;5076446;28;20357;-70
2023/03/21 04:44:47;;;;;;;39.95;20.60;;;;;;;;;;5077506;28;20039;-71
2023/03/21 04:47:32;;;;;;;37.33;22.10;;;;;;;;;;5078144;28;20334;-68
2023/03/21 04:50:18;;;;;;;35.85;22.92;;;;;;;;;;5077352;28;20401;-70
2023/03/21 04:53:03;;;;;;;46.72;22.73;;;;;;;;;;5077027;28;20341;-70
2023/03/21 04:55:50;;;;;;;39.70;21.42;;;;;;;;;;5077718;28;20528;-70
2023/03/21 04:58:35;;;;;;;38.45;22.92;;;;;;;;;;5077204;28;20039;-69
2023/03/21 05:01:21;;;;;;;42.78;25.17;;;;;;;;;;5076490;28;20031;-70
2023/03/21 05:04:06;;;;;;;44.72;25.30;;;;;;;;;;5076865;28;20013;-70
2023/03/21 05:06:52;;;;;;;45.33;25.67;;;;;;;;;;5076140;28;20369;-70
2023/03/21 05:09:38;;;;;;;45.97;26.58;;;;;;;;;;5061943;28;20085;-70
2023/03/21 05:12:24;;;;;;;49.38;27.63;;;;;;;;;;5075363;28;20115;-70
2023/03/21 05:15:09;;;;;;;46.67;27.48;;;;;;;;;;5076548;28;20047;-70
2023/03/21 05:17:57;;;;;;;49.45;27.70;;;;;;;;;;5078332;28;20020;-71
2023/03/21 05:20:43;;;;;;;47.20;26.27;;;;;;;;;;5077001;28;20021;-70
2023/03/21 05:23:30;;;;;;;39.25;25.20;;;;;;;;;;5077125;28;20365;-70
2023/03/21 05:26:16;;;;;;;46.92;25.60;;;;;;;;;;5076581;28;20021;-71
2023/03/21 05:29:01;;;;;;;51.97;26.63;;;;;;;;;;5077161;28;20038;-70
2023/03/21 05:31:47;;;;;;;50.92;26.02;;;;;;;;;;5075813;28;20032;-69
2023/03/21 05:34:32;;;;;;;50.05;25.17;;;;;;;;;;5076725;28;20182;-72
2023/03/21 05:37:18;;;;;;;48.78;24.33;;;;;;;;;;5077235;28;20365;-70
2023/03/21 05:40:07;;;;;;;50.83;25.70;;;;;;;;;;5062280;28;20108;-70
2023/03/21 05:42:53;;;;;;;44.60;23.50;;;;;;;;;;5076993;28;20028;-71
2023/03/21 05:45:38;;;;;;;48.13;24.00;;;;;;;;;;5076216;28;20024;-70
2023/03/21 05:48:24;;;;;;;44.25;25.38;;;;;;;;;;5061051;28;20115;-70
2023/03/21 05:51:10;;;;;;;41.10;23.25;;;;;;;;;;5076074;28;20086;-70
2023/03/21 05:53:55;;;;;;;44.53;24.08;;;;;;;;;;5076399;28;20052;-70
2023/03/21 05:56:41;;;;;;;50.35;24.13;;;;;;;;;;5076747;28;20047;-69
2023/03/21 05:59:26;;;;;;;44.35;23.38;;;;;;;;;;5076059;28;20459;-70
2023/03/21 06:02:12;;;;;;;44.90;23.90;;;;;;;;;;5062090;28;20537;-69
2023/03/21 06:04:57;;;;;;;44.22;22.65;;;;;;;;;;5076510;28;20021;-71
2023/03/21 06:07:43;;;;;;;42.92;23.23;;;;;;;;;;5076491;28;20125;-69
2023/03/21 06:10:29;;;;;;;51.25;24.13;;;;;;;;;;5061659;28;20083;-70
2023/03/21 06:13:14;;;;;;;51.30;25.48;;;;;;;;;;5061018;28;20083;-69
2023/03/21 06:16:00;;;;;;;41.75;25.00;;;;;;;;;;5075237;28;20422;-70
2023/03/21 06:18:46;;;;;;;44.55;24.38;;;;;;;;;;5076274;28;20094;-71
2023/03/21 06:21:31;;;;;;;38.90;23.30;;;;;;;;;;5075273;28;20063;-70
2023/03/21 06:24:17;;;;;;;45.38;23.23;;;;;;;;;;5074991;28;20092;-71
2023/03/21 06:27:02;;;;;;;45.25;24.55;;;;;;;;;;5077386;28;20027;-70
2023/03/21 06:29:48;;;;;;;44.03;24.83;;;;;;;;;;5061687;28;20448;-70
2023/03/21 06:32:34;;;;;;;46.38;24.35;;;;;;;;;;5074304;28;20119;-71
2023/03/21 06:35:20;;;;;;;49.85;23.88;;;;;;;;;;5075243;28;20024;-70
2023/03/21 06:38:07;;;;;;;52.55;25.38;;;;;;;;;;5059645;28;20024;-70
2023/03/21 06:40:52;;;;;;;43.70;25.30;;;;;;;;;;5073971;28;20033;-70
2023/03/21 06:43:38;;;;;;;52.88;25.30;;;;;;;;;;5075061;28;20095;-70
2023/03/21 06:46:24;;;;;;;39.03;24.90;;;;;;;;;;5073989;28;20049;-70
2023/03/21 06:49:09;;;;;;;45.65;24.08;;;;;;;;;;5075419;28;20448;-70
2023/03/21 06:51:57;;;;;;;40.65;23.30;;;;;;;;;;5060485;28;20032;-71
2023/03/21 06:54:42;;;;;;;43.85;23.10;;;;;;;;;;5059229;28;20028;-69
2023/03/21 06:57:28;;;;;;;45.88;23.50;;;;;;;;;;5076292;28;20046;-71
2023/03/21 07:00:13;;;;;;;40.13;23.05;;;;;;;;;;5074025;28;20365;-70
2023/03/21 07:03:00;;;;;;;40.92;22.88;;;;;;;;;;5074701;28;20441;-71
2023/03/21 07:05:46;;;;;;;47.97;22.75;;;;;;;;;;5075216;28;20116;-71
2023/03/21 07:08:32;;;;;;;43.15;22.38;;;;;;;;;;5074501;28;20441;-71
2023/03/21 07:11:18;;;;;;;46.33;23.02;;;;;;;;;;5075011;28;20020;-69
2023/03/21 07:14:04;;;;;;;41.10;22.08;;;;;;;;;;5077941;28;20423;-70
2023/03/21 07:16:49;;;;;;;44.90;23.13;;;;;;;;;;5083017;28;20020;-70
2023/03/21 07:19:35;;;;;;;45.45;22.33;;;;;;;;;;5085956;28;20028;-70
2023/03/21 07:22:21;;;;;;;45.50;22.45;;;;;;;;;;5083685;28;20108;-70
2023/03/21 07:25:07;;;;;;;39.17;22.15;;;;;;;;;;5086139;28;20020;-71
2023/03/21 07:27:52;;;;;;;44.42;22.60;;;;;;;;;;5084987;28;20082;-69
2023/03/21 07:30:38;;;;;;;35.25;20.65;;;;;;;;;;5085297;28;20038;-69
2023/03/21 07:33:24;;;;;;;36.13;20.77;;;;;;;;;;5067786;28;20028;-69
2023/03/21 07:36:14;;;;;;;43.25;21.23;;;;;;;;;;5084706;28;20363;-70
2023/03/21 07:38:59;;;;;;;42.65;20.35;;;;;;;;;;5084776;28;20552;-70
2023/03/21 07:41:45;;;;;;;40.25;20.40;;;;;;;;;;5085487;28;20450;-71
2023/03/21 07:44:32;;;;;;;40.70;21.27;;;;;;;;;;5083718;28;20115;-69
2023/03/21 07:47:18;;;;;;;43.05;21.02;;;;;;;;;;5085225;28;20440;-70
2023/03/21 07:50:03;;;;;;;31.70;19.30;;;;;;;;;;5086236;28;20115;-70
2023/03/21 07:52:49;;;;;;;33.55;19.98;;;;;;;;;;5067451;28;20052;-71
2023/03/21 07:55:35;;;;;;;36.13;20.02;;;;;;;;;;5070710;28;20587;-72
2023/03/21 07:58:21;;;;;;;41.90;20.60;;;;;;;;;;5085465;28;20024;-70
2023/03/21 08:01:07;;;;;;;28.08;18.42;;;;;;;;;;5084205;28;20040;-70
2023/03/21 08:03:52;;;;;;;37.65;19.02;;;;;;;;;;5069200;28;20016;-70
2023/03/21 08:06:38;;;;;;;34.35;19.73;;;;;;;;;;5071813;28;20078;-70
2023/03/21 08:09:24;;;;;;;32.25;19.20;;;;;;;;;;5084378;28;20031;-73
2023/03/21 08:12:10;;;;;;;36.90;20.08;;;;;;;;;;5083540;28;20644;-71
2023/03/21 08:14:55;;;;;;;35.10;19.48;;;;;;;;;;5074698;28;20024;-70
2023/03/21 08:17:44;;;;;;;34.00;18.42;;;;;;;;;;5088369;28;20028;-74
2023/03/21 08:20:29;;;;;;;31.52;17.83;;;;;;;;;;5087875;28;20056;-73
2023/03/21 08:23:15;;;;;;;35.75;18.17;;;;;;;;;;5086689;28;20008;-70
2023/03/21 08:26:01;;;;;;;36.13;18.80;;;;;;;;;;5075648;28;20547;-70
2023/03/21 08:28:46;;;;;;;38.80;18.83;;;;;;;;;;5089748;28;20024;-71
2023/03/21 08:31:32;;;;;;;30.27;18.08;;;;;;;;;;5076598;28;20142;-69
2023/03/21 08:34:19;;;;;;;33.58;18.13;;;;;;;;;;5093658;28;20023;-69
2023/03/21 08:37:05;;;;;;;39.15;19.55;;;;;;;;;;5076671;28;20032;-70
2023/03/21 08:39:51;;;;;;;32.05;18.70;;;;;;;;;;5077004;28;20098;-70
2023/03/21 08:42:37;;;;;;;36.33;20.58;;;;;;;;;;5090533;28;20147;-71
2023/03/21 08:45:23;;;;;;;32.75;19.67;;;;;;;;;;5088333;28;20038;-71
2023/03/21 08:48:08;;;;;;;32.45;18.60;;;;;;;;;;5087776;28;20041;-71
2023/03/21 08:50:54;;;;;;;28.52;16.60;;;;;;;;;;5087556;28;20032;-70
2023/03/21 08:53:42;;;;;;;30.40;16.95;;;;;;;;;;5084217;28;20445;-70
2023/03/21 08:56:28;;;;;;;26.77;15.85;;;;;;;;;;5087211;28;20043;-71
2023/03/21 08:59:14;;;;;;;31.30;17.08;;;;;;;;;;5088721;28;20043;-70
2023/03/21 09:01:59;;;;;;;27.10;16.45;;;;;;;;;;5084035;28;20480;-69
2023/03/21 09:04:46;;;;;;;28.50;16.15;;;;;;;;;;5073462;28;20028;-70
2023/03/21 09:07:33;;;;;;;29.48;15.30;;;;;;;;;;5086554;28;20047;-70
2023/03/21 09:10:20;;;;;;;25.73;14.27;;;;;;;;;;5071590;28;20496;-70
2023/03/21 09:13:06;;;;;;;29.10;15.50;;;;;;;;;;5084654;28;20055;-70
2023/03/21 09:15:52;;;;;;;29.85;15.07;;;;;;;;;;5086650;28;20394;-69
2023/03/21 09:18:45;;;;;;;24.38;15.50;;;;;;;;;;5073879;28;20121;-70
2023/03/21 09:21:31;;;;;;;26.52;14.13;;;;;;;;;;5092822;28;21005;-69
2023/03/21 09:24:18;;;;;;;32.90;15.95;;;;;;;;;;5085422;28;20349;-70
2023/03/21 09:27:03;;;;;;;21.92;14.48;;;;;;;;;;5086772;28;20377;-69
2023/03/21 09:29:49;;;;;;;33.20;16.23;;;;;;;;;;5086359;28;20028;-71
2023/03/21 09:32:35;;;;;;;29.92;16.42;;;;;;;;;;5085247;28;20020;-70
2023/03/21 09:35:21;;;;;;;33.58;16.55;;;;;;;;;;5086942;28;20023;-69
2023/03/21 09:38:07;;;;;;;23.42;14.68;;;;;;;;;;5072317;28;20093;-71
2023/03/21 09:40:53;;;;;;;35.05;16.75;;;;;;;;;;5073332;28;20070;-70
2023/03/21 09:43:42;;;;;;;37.75;16.50;;;;;;;;;;5085158;28;20028;-71
2023/03/21 09:46:30;;;;;;;40.70;17.25;;;;;;;;;;5086804;28;20012;-70
2023/03/21 09:49:24;;;;;;;34.85;16.85;;;;;;;;;;5073567;28;20031;-70
2023/03/21 09:52:36;;;;;;;29.63;15.02;;;;;;;;;;5086486;28;20345;-70
2023/03/21 09:55:25;;;;;;;29.17;15.57;;;;;;;;;;5051578;28;20039;-70
2023/03/21 09:58:25;;;;;;;25.88;14.77;;;;;;;;;;5072583;28;20028;-70
2023/03/21 10:01:21;;;;;;;27.77;14.75;;;;;;;;;;5086822;28;20645;-70
2023/03/21 10:04:10;;;;;;;29.15;15.35;;;;;;;;;;5070394;28;20035;-70
2023/03/21 10:06:58;;;;;;;24.45;14.18;;;;;;;;;;5058178;28;20048;-70
2023/03/21 10:09:45;;;;;;;29.70;14.93;;;;;;;;;;5053251;28;20373;-70
2023/03/21 10:12:33;;;;;;;28.65;16.45;;;;;;;;;;5063367;28;20086;-70
2023/03/21 10:15:21;;;;;;;27.83;17.20;;;;;;;;;;5064618;28;20025;-70
2023/03/21 10:18:07;;;;;;;28.42;14.68;;;;;;;;;;5052132;28;20077;-69
2023/03/21 10:20:53;;;;;;;23.80;15.00;;;;;;;;;;5051012;28;20024;-69
2023/03/21 10:23:39;;;;;;;26.17;14.30;;;;;;;;;;5064269;28;20044;-70
2023/03/21 10:26:26;;;;;;;29.23;15.02;;;;;;;;;;5051839;28;20017;-69
2023/03/21 10:29:13;;;;;;;27.40;15.25;;;;;;;;;;5052181;28;20056;-70
2023/03/21 10:31:59;;;;;;;25.45;14.75;;;;;;;;;;5065034;28;20028;-70
2023/03/21 10:34:46;;;;;;;29.52;14.82;;;;;;;;;;5051682;28;20040;-69
2023/03/21 10:37:34;;;;;;;38.47;16.40;;;;;;;;;;5051224;28;20390;-70
2023/03/21 10:40:20;;;;;;;29.63;16.50;;;;;;;;;;5065533;28;20337;-69
2023/03/21 10:43:16;;;;;;;25.88;14.95;;;;;;;;;;5049313;28;20025;-69
2023/03/21 10:46:20;;;;;;;26.83;15.60;;;;;;;;;;5051349;28;20384;-70
2023/03/21 10:49:06;;;;;;;30.27;16.50;;;;;;;;;;5066015;28;20035;-71
2023/03/21 10:51:54;;;;;;;28.85;17.05;;;;;;;;;;5049079;28;20012;-70
2023/03/21 10:54:40;;;;;;;33.88;17.33;;;;;;;;;;5052103;28;20055;-70
2023/03/21 10:57:25;;;;;;;29.70;16.45;;;;;;;;;;5051923;28;20384;-70
2023/03/21 11:00:17;;;;;;;28.20;16.67;;;;;;;;;;5065306;28;20043;-71
2023/03/21 11:03:04;;;;;;;22.55;13.60;;;;;;;;;;5048873;28;20238;-70
2023/03/21 11:05:56;;;;;;;21.40;14.13;;;;;;;;;;5055516;28;20063;-69
2023/03/21 11:08:53;;;;;;;25.13;13.48;;;;;;;;;;5086523;28;20120;-70
2023/03/21 11:11:40;;;;;;;23.90;14.35;;;;;;;;;;5086211;28;20035;-70
2023/03/21 11:14:43;;;;;;;21.60;12.80;;;;;;;;;;5084603;28;20024;-70
2023/03/21 11:17:30;;;;;;;20.08;13.38;;;;;;;;;;5085697;28;20108;-70
2023/03/21 11:20:17;;;;;;;24.13;15.88;;;;;;;;;;5085356;28;20038;-72
2023/03/21 11:23:05;;;;;;;28.15;15.55;;;;;;;;;;5083430;28;20146;-71
2023/03/21 11:25:51;;;;;;;30.02;15.90;;;;;;;;;;5085757;28;20308;-71
2023/03/21 11:28:40;;;;;;;22.33;14.27;;;;;;;;;;5086111;28;20055;-71
2023/03/21 11:31:37;;;;;;;28.75;15.65;;;;;;;;;;5083825;28;20031;-70
2023/03/21 11:34:31;;;;;;;30.02;15.57;;;;;;;;;;5084465;28;20099;-70
2023/03/21 11:37:30;;;;;;;31.05;14.13;;;;;;;;;;5085719;28;20020;-70
2023/03/21 11:40:23;;;;;;;23.15;14.35;;;;;;;;;;5085831;28;20035;-70
2023/03/21 11:43:18;;;;;;;23.05;14.15;;;;;;;;;;5083367;28;20035;-71
2023/03/21 11:46:03;;;;;;;23.85;14.00;;;;;;;;;;5084808;28;20664;-70
2023/03/21 11:48:49;;;;;;;24.70;14.13;;;;;;;;;;5070565;28;20012;-70
2023/03/21 11:51:47;;;;;;;24.17;14.10;;;;;;;;;;5084348;28;20106;-71
2023/03/21 11:54:35;;;;;;;29.60;16.23;;;;;;;;;;5083819;28;20134;-70
2023/03/21 11:57:25;;;;;;;24.23;15.15;;;;;;;;;;5085924;28;20024;-70
2023/03/21 12:00:13;;;;;;;27.45;14.88;;;;;;;;;;5086174;28;20109;-70
2023/03/21 12:03:04;;;;;;;32.85;17.45;;;;;;;;;;5067479;28;20074;-71
2023/03/21 12:05:57;;;;;;;30.20;16.52;;;;;;;;;;5085865;28;20126;-70
2023/03/21 12:08:45;;;;;;;31.70;16.45;;;;;;;;;;5085966;28;20024;-70
2023/03/21 12:12:00;;;;;;;32.72;15.98;;;;;;;;;;5068641;28;20845;-70
2023/03/21 12:14:50;;;;;;;25.08;14.13;;;;;;;;;;5075246;28;20028;-70
2023/03/21 12:17:38;;;;;;;29.00;15.85;;;;;;;;;;5085092;28;20337;-70
2023/03/21 12:20:24;;;;;;;27.80;15.57;;;;;;;;;;5085439;28;20012;-70
2023/03/21 12:23:16;;;;;;;32.13;15.82;;;;;;;;;;5083929;28;20373;-71
2023/03/21 12:26:16;;;;;;;27.33;15.02;;;;;;;;;;5085408;28;20028;-69
2023/03/21 12:29:14;;;;;;;30.73;16.30;;;;;;;;;;5069742;28;20488;-71
2023/03/21 12:32:09;;;;;;;29.65;16.10;;;;;;;;;;5082374;28;20067;-69
2023/03/21 12:35:12;;;;;;;28.60;15.45;;;;;;;;;;5071219;28;20396;-70
2023/03/21 12:38:10;;;;;;;26.40;15.57;;;;;;;;;;5084178;28;20329;-70
2023/03/21 12:41:01;;;;;;;27.73;15.07;;;;;;;;;;5070357;28;20028;-69
2023/03/21 12:44:03;;;;;;;25.17;14.43;;;;;;;;;;5082936;28;20024;-69
2023/03/21 12:46:52;;;;;;;29.00;15.35;;;;;;;;;;5085838;28;20016;-70
2023/03/21 12:49:42;;;;;;;24.65;14.88;;;;;;;;;;5056611;28;20016;-69
2023/03/21 12:52:31;;;;;;;30.42;14.43;;;;;;;;;;5083506;28;20039;-69
2023/03/21 12:55:24;;;;;;;26.35;14.18;;;;;;;;;;5084728;28;20097;-69
2023/03/21 12:58:13;;;;;;;31.08;15.05;;;;;;;;;;5070604;28;20024;-71
2023/03/21 13:01:00;;;;;;;51.97;16.17;;;;;;;;;;5087817;28;20094;-69
2023/03/21 13:03:49;;;;;;;31.20;14.65;;;;;;;;;;5085918;28;20476;-70
2023/03/21 13:06:36;;;;;;;28.02;14.73;;;;;;;;;;5073073;28;20055;-70
2023/03/21 13:09:27;;;;;;;26.95;14.63;;;;;;;;;;5074257;28;20468;-70
2023/03/21 13:12:31;;;;;;;26.38;15.30;;;;;;;;;;5084964;28;20372;-69
2023/03/21 13:15:36;;;;;;;25.05;14.57;;;;;;;;;;5087069;28;20036;-68
2023/03/21 13:18:21;;;;;;;23.23;13.93;;;;;;;;;;5074183;28;20056;-69
2023/03/21 13:21:15;;;;;;;28.92;14.88;;;;;;;;;;5086341;28;20024;-69
2023/03/21 13:24:03;;;;;;;25.00;13.85;;;;;;;;;;5086234;28;20031;-70
2023/03/21 13:26:50;;;;;;;30.65;14.85;;;;;;;;;;5086027;28;20082;-70
2023/03/21 13:29:50;;;;;;;27.25;15.00;;;;;;;;;;5073424;28;20031;-69
2023/03/21 13:32:42;;;;;;;32.72;15.60;;;;;;;;;;5087145;28;20028;-70
2023/03/21 13:35:43;;;;;;;25.80;15.15;;;;;;;;;;5075558;28;20128;-69
2023/03/21 13:38:30;;;;;;;32.70;15.93;;;;;;;;;;5075358;28;20143;-68
2023/03/21 13:41:17;;;;;;;32.88;15.75;;;;;;;;;;5087279;28;20416;-69
2023/03/21 13:44:03;;;;;;;26.45;13.32;;;;;;;;;;5071079;28;20097;-69
2023/03/21 13:46:55;;;;;;;39.53;15.80;;;;;;;;;;5088313;28;20028;-70
2023/03/21 13:49:40;;;;;;;28.90;15.85;;;;;;;;;;5073843;28;20012;-70
2023/03/21 13:52:26;;;;;;;32.55;15.85;;;;;;;;;;5070735;28;20036;-69
2023/03/21 13:55:18;;;;;;;26.73;15.13;;;;;;;;;;5071489;28;20077;-70
2023/03/21 13:58:23;;;;;;;29.15;15.70;;;;;;;;;;5087204;28;20058;-69
2023/03/21 14:01:15;;;;;;;26.55;14.35;;;;;;;;;;5086489;28;20111;-69
2023/03/21 14:04:17;;;;;;;26.70;14.23;;;;;;;;;;5071370;28;20025;-70
2023/03/21 14:07:08;;;;;;;28.63;15.15;;;;;;;;;;5072492;28;20101;-69
2023/03/21 14:09:57;;;;;;;21.23;14.35;;;;;;;;;;5086993;28;20407;-69
2023/03/21 14:12:43;;;;;;;21.67;13.70;;;;;;;;;;5083888;28;20039;-68
2023/03/21 14:15:32;;;;;;;24.20;13.48;;;;;;;;;;5087013;28;20089;-68
2023/03/21 14:18:19;;;;;;;24.02;12.90;;;;;;;;;;5085979;28;20036;-69
2023/03/21 14:21:05;;;;;;;27.42;13.75;;;;;;;;;;5086640;28;20051;-69
2023/03/21 14:23:56;;;;;;;23.95;13.98;;;;;;;;;;5083575;28;20036;-69
2023/03/21 14:26:44;;;;;;;29.50;14.38;;;;;;;;;;5086806;28;20376;-71
2023/03/21 14:29:32;;;;;;;26.75;14.25;;;;;;;;;;5088950;28;20106;-68
2023/03/21 14:32:20;;;;;;;24.00;13.57;;;;;;;;;;5085402;28;20036;-72
2023/03/21 14:35:09;;;;;;;28.23;14.23;;;;;;;;;;5086162;28;20020;-70
2023/03/21 14:37:59;;;;;;;25.08;14.05;;;;;;;;;;5087319;28;20060;-70
2023/03/21 14:40:49;;;;;;;26.30;13.18;;;;;;;;;;5085750;28;20028;-70
2023/03/21 14:43:35;;;;;;;29.90;14.02;;;;;;;;;;5085280;28;20049;-72
2023/03/21 14:46:20;;;;;;;25.25;14.50;;;;;;;;;;5070621;28;20043;-70
2023/03/21 14:49:13;;;;;;;25.38;14.35;;;;;;;;;;5087328;28;20183;-72
2023/03/21 14:52:00;;;;;;;25.23;13.82;;;;;;;;;;5070402;28;20040;-69
2023/03/21 14:54:46;;;;;;;24.35;14.05;;;;;;;;;;5071117;28;20027;-69
2023/03/21 14:57:32;;;;;;;28.55;15.73;;;;;;;;;;5086167;28;20031;-69
2023/03/21 15:00:43;;;;;;;23.58;15.63;;;;;;;;;;5085828;28;20047;-70
2023/03/21 15:03:30;;;;;;;27.65;15.95;;;;;;;;;;5084967;28;20621;-69
2023/03/21 15:06:16;;;;;;;27.40;14.95;;;;;;;;;;5086885;28;20044;-69
2023/03/21 15:09:02;;;;;;;29.75;15.60;;;;;;;;;;5086145;28;20524;-69
2023/03/21 15:11:50;;;;;;;27.25;16.02;;;;;;;;;;5072537;28;20439;-69
2023/03/21 15:14:36;;;;;;;28.20;15.93;;;;;;;;;;5088742;28;20055;-68
2023/03/21 15:17:23;;;;;;;24.85;14.90;;;;;;;;;;5090762;28;20032;-70
2023/03/21 15:20:13;;;;;;;25.48;15.38;;;;;;;;;;5078660;28;20052;-70
2023/03/21 15:23:10;;;;;;;28.98;17.08;;;;;;;;;;5093108;28;20103;-70
2023/03/21 15:25:56;;;;;;;29.58;16.40;;;;;;;;;;5077892;28;20382;-71
2023/03/21 15:28:44;;;;;;;28.00;15.88;;;;;;;;;;5092291;28;20016;-71
2023/03/21 15:31:33;;;;;;;32.50;17.55;;;;;;;;;;5077763;28;20028;-71
2023/03/21 15:34:23;;;;;;;31.50;16.08;;;;;;;;;;5096393;28;20046;-70
2023/03/21 15:37:15;;;;;;;32.92;15.90;;;;;;;;;;5093435;28;20028;-70
2023/03/21 15:40:19;;;;;;;34.80;18.00;;;;;;;;;;5093588;28;20016;-70
2023/03/21 15:43:13;;;;;;;37.05;17.33;;;;;;;;;;5093479;28;20016;-70
2023/03/21 15:45:58;;;;;;;36.90;16.38;;;;;;;;;;5093172;28;20015;-71
2023/03/21 15:48:44;;;;;;;33.80;16.45;;;;;;;;;;5093379;28;20050;-71
2023/03/21 15:51:30;;;;;;;28.30;15.73;;;;;;;;;;5093284;28;20020;-70
2023/03/21 15:54:20;;;;;;;29.17;15.70;;;;;;;;;;5093638;28;20337;-70
2023/03/21 15:57:18;;;;;;;26.50;14.68;;;;;;;;;;5093441;28;20557;-71
2023/03/21 16:00:14;;;;;;;27.00;15.70;;;;;;;;;;5091796;28;20397;-71
2023/03/21 16:03:03;;;;;;;20.63;15.50;;;;;;;;;;5092359;28;20434;-70
2023/03/21 16:06:07;;;;;;;24.77;15.68;;;;;;;;;;5092888;28;20048;-70
2023/03/21 16:09:10;;;;;;;33.92;16.65;;;;;;;;;;5085020;28;20054;-70
2023/03/21 16:11:57;;;;;;;29.38;16.30;;;;;;;;;;5082396;28;20035;-70
2023/03/21 16:14:43;;;;;;;34.33;17.73;;;;;;;;;;5086322;28;20084;-70
2023/03/21 16:17:36;;;;;;;31.13;17.75;;;;;;;;;;5085169;28;20020;-70
2023/03/21 16:20:23;;;;;;;31.00;17.30;;;;;;;;;;5083999;28;20084;-69
2023/03/21 16:23:10;;;;;;;32.38;16.77;;;;;;;;;;5081468;28;20024;-70